createdAt,value
2023-11-02T00:01:11.536Z,92876.38
2023-11-02T00:03:43.145Z,92872.81
2023-11-02T00:06:23.011Z,92884.69
2023-11-02T00:09:05.117Z,92872.41
2023-11-02T00:11:54.671Z,92868.69
2023-11-02T00:14:22.398Z,92854.09
2023-11-02T00:16:49.718Z,92880.16
2023-11-02T00:19:29.780Z,92860.66
2023-11-02T00:22:05.830Z,92858.16
2023-11-02T00:24:32.657Z,92853.16
2023-11-02T00:26:59.395Z,92844.50
2023-11-02T00:29:29.135Z,92844.25
2023-11-02T00:31:55.899Z,92838.91
2023-11-02T00:34:22.987Z,92831.03
2023-11-02T00:36:49.875Z,92838.38
2023-11-02T00:39:16.684Z,92831.78
2023-11-02T00:41:43.570Z,92817.50
2023-11-02T00:44:10.323Z,92808.88
2023-11-02T00:46:37.412Z,92804.84
2023-11-02T00:49:04.638Z,92799.44
2023-11-02T00:51:31.521Z,92807.25
2023-11-02T00:54:00.808Z,92793.41
2023-11-02T00:56:45.719Z,92792.13
2023-11-02T00:59:18.275Z,92765.47
2023-11-02T01:05:32.105Z,92735.25
2023-11-02T01:08:14.801Z,92718.00
2023-11-02T01:10:42.236Z,92698.22
2023-11-02T01:13:14.983Z,92707.84
2023-11-02T01:16:02.899Z,92702.88
2023-11-02T01:18:29.717Z,92698.94
2023-11-02T01:21:03.157Z,92674.88
2023-11-02T01:23:31.069Z,92655.00
2023-11-02T01:25:57.846Z,92648.88
2023-11-02T01:28:24.841Z,92619.94
2023-11-02T01:31:17.135Z,92599.28
2023-11-02T01:34:08.286Z,92597.09
2023-11-02T01:36:39.578Z,92588.09
2023-11-02T01:39:31.780Z,92608.72
2023-11-02T01:42:09.193Z,92600.13
2023-11-02T01:44:46.965Z,92600.34
2023-11-02T01:47:36.563Z,92601.97
2023-11-02T01:50:13.696Z,92594.88
2023-11-02T01:52:55.448Z,92602.47
2023-11-02T01:55:32.535Z,92604.88
2023-11-02T01:58:31.127Z,92576.16
2023-11-02T02:01:13.804Z,92577.44
2023-11-02T02:03:48.971Z,92587.94
2023-11-02T02:06:19.597Z,92597.78
2023-11-02T02:09:14.695Z,92602.53
2023-11-02T02:11:55.214Z,92592.91
2023-11-02T02:14:33.579Z,92579.22
2023-11-02T02:17:15.595Z,92571.56
2023-11-02T02:27:29.406Z,92541.97
2023-11-02T02:30:22.610Z,92501.63
2023-11-02T02:33:08.213Z,92462.34
2023-11-02T02:35:47.267Z,92454.06
2023-11-02T02:38:27.323Z,92478.59
2023-11-02T02:41:00.533Z,92473.91
2023-11-02T02:43:40.086Z,92452.75
2023-11-02T02:46:09.355Z,92446.19
2023-11-02T02:48:36.171Z,92458.06
2023-11-02T02:51:06.742Z,92463.31
2023-11-02T02:53:37.885Z,92439.03
2023-11-02T02:56:08.818Z,92423.06
2023-11-02T02:58:44.349Z,92433.25
2023-11-02T03:01:11.114Z,92438.56
2023-11-02T03:03:38.081Z,92441.81
2023-11-02T03:06:05.493Z,92453.59
2023-11-02T03:08:32.249Z,92459.03
2023-11-02T03:11:06.448Z,92460.50
2023-11-02T03:13:39.837Z,92440.34
2023-11-02T03:16:09.921Z,92418.03
2023-11-02T03:18:37.802Z,92409.63
2023-11-02T03:21:06.217Z,92385.25
2023-11-02T03:23:36.264Z,92371.75
2023-11-02T03:26:24.405Z,92390.34
2023-11-02T03:29:03.142Z,92377.59
2023-11-02T03:31:34.772Z,92375.00
2023-11-02T03:34:40.508Z,92364.56
2023-11-02T03:37:41.149Z,92355.59
2023-11-02T03:40:26.783Z,92328.97
2023-11-02T03:43:19.712Z,92323.66
2023-11-02T03:46:10.015Z,92314.66
2023-11-02T03:52:38.011Z,92291.81
2023-11-02T03:55:43.116Z,92286.50
2023-11-02T03:58:38.135Z,92271.88
2023-11-02T04:01:31.497Z,92289.50
2023-11-02T04:04:06.058Z,92277.91
2023-11-02T04:06:42.323Z,92274.25
2023-11-02T04:09:09.226Z,92263.19
2023-11-02T04:12:12.020Z,92234.56
2023-11-02T04:15:00.467Z,92230.19
2023-11-02T04:17:28.079Z,92226.78
2023-11-02T04:19:55.099Z,92214.81
2023-11-02T04:22:21.946Z,92194.41
2023-11-02T04:24:49.300Z,92186.16
2023-11-02T04:27:45.318Z,92183.31
2023-11-02T04:30:13.761Z,92171.59
2023-11-02T04:32:40.647Z,92151.09
2023-11-02T04:35:07.700Z,92156.25
2023-11-02T04:37:34.476Z,92151.56
2023-11-02T04:40:01.742Z,92154.44
2023-11-02T04:46:17.431Z,92121.81
2023-11-02T04:48:44.402Z,92106.06
2023-11-02T04:51:11.504Z,92111.13
2023-11-02T04:53:38.441Z,92099.38
2023-11-02T04:56:06.590Z,92106.88
2023-11-02T04:58:34.380Z,92101.34
2023-11-02T05:01:01.328Z,92101.81
2023-11-02T05:03:28.432Z,92098.97
2023-11-02T05:05:58.293Z,92114.75
2023-11-02T05:08:25.192Z,92101.03
2023-11-02T05:10:52.185Z,92126.41
2023-11-02T05:13:18.941Z,92158.00
2023-11-02T05:15:55.901Z,92165.72
2023-11-02T05:18:23.908Z,92166.16
2023-11-02T05:20:51.368Z,92178.25
2023-11-02T05:23:18.584Z,92199.91
2023-11-02T05:25:46.413Z,92183.91
2023-11-02T05:28:13.536Z,92198.16
2023-11-02T05:30:45.596Z,92189.53
2023-11-02T05:33:12.712Z,92166.53
2023-11-02T05:35:39.940Z,92159.84
2023-11-02T05:41:55.755Z,92161.47
2023-11-02T05:44:22.892Z,92159.56
2023-11-02T05:46:50.195Z,92152.38
2023-11-02T05:49:17.469Z,92150.19
2023-11-02T05:51:44.750Z,92157.75
2023-11-02T05:54:11.851Z,92176.91
2023-11-02T05:56:38.723Z,92167.88
2023-11-02T05:59:05.693Z,92168.94
2023-11-02T06:01:32.524Z,92165.91
2023-11-02T06:03:59.715Z,92156.34
2023-11-02T06:06:26.615Z,92160.91
2023-11-02T06:08:54.075Z,92159.41
2023-11-02T06:11:21.113Z,92160.63
2023-11-02T06:13:48.068Z,92160.72
2023-11-02T06:16:15.012Z,92157.69
2023-11-02T06:18:42.162Z,92160.88
2023-11-02T06:21:09.469Z,92153.69
2023-11-02T06:23:36.245Z,92140.72
2023-11-02T06:26:21.947Z,92128.22
2023-11-02T06:28:48.774Z,92136.06
2023-11-02T06:31:15.551Z,92134.78
2023-11-02T06:33:42.508Z,92126.63
2023-11-02T06:36:10.362Z,92127.59
2023-11-02T06:38:38.222Z,92113.91
2023-11-02T06:41:05.641Z,92120.94
2023-11-02T06:43:32.548Z,92111.22
2023-11-02T06:45:59.674Z,92101.81
2023-11-02T06:48:26.742Z,92119.75
2023-11-02T06:50:54.590Z,92127.03
2023-11-02T06:53:21.511Z,92143.25
2023-11-02T06:55:48.377Z,92135.50
2023-11-02T06:58:18.063Z,92150.97
2023-11-02T07:00:44.878Z,92160.00
2023-11-02T07:03:12.051Z,92155.16
2023-11-02T07:05:39.266Z,92158.66
2023-11-02T07:08:06.564Z,92171.19
2023-11-02T07:10:50.878Z,92182.28
2023-11-02T07:13:18.054Z,92166.63
2023-11-02T07:15:45.966Z,92171.94
2023-11-02T07:22:06.360Z,92155.47
2023-11-02T07:24:33.245Z,92133.66
2023-11-02T07:27:00.163Z,92114.31
2023-11-02T07:29:26.954Z,92098.78
2023-11-02T07:31:53.927Z,92118.25
2023-11-02T07:34:21.241Z,92105.53
2023-11-02T07:36:48.366Z,92122.38
2023-11-02T07:39:15.945Z,92126.69
2023-11-02T07:41:43.316Z,92129.66
2023-11-02T07:44:10.208Z,92131.28
2023-11-02T07:46:37.061Z,92139.31
2023-11-02T07:49:04.043Z,92135.69
2023-11-02T07:51:31.042Z,92134.13
2023-11-02T07:53:57.832Z,92159.44
2023-11-02T07:56:24.625Z,92190.06
2023-11-02T07:58:51.450Z,92203.81
2023-11-02T08:01:19.283Z,92212.50
2023-11-02T08:03:47.399Z,92209.19
2023-11-02T08:06:14.420Z,92215.94
2023-11-02T08:08:41.862Z,92242.16
2023-11-02T08:11:10.381Z,92252.28
2023-11-02T08:13:37.658Z,92242.06
2023-11-02T08:16:07.511Z,92237.44
2023-11-02T08:18:34.433Z,92233.19
2023-11-02T08:21:06.987Z,92256.28
2023-11-02T08:23:34.211Z,92275.44
2023-11-02T08:26:01.000Z,92279.28
2023-11-02T08:28:29.555Z,92299.91
2023-11-02T08:30:58.062Z,92300.25
2023-11-02T08:33:41.361Z,92291.06
2023-11-02T08:36:14.385Z,92302.81
2023-11-02T08:38:41.585Z,92308.03
2023-11-02T08:41:08.538Z,92317.84
2023-11-02T08:43:36.554Z,92309.88
2023-11-02T08:46:05.140Z,92304.34
2023-11-02T08:48:32.557Z,92302.72
2023-11-02T08:51:00.541Z,92311.47
2023-11-02T08:53:27.328Z,92317.88
2023-11-02T08:55:54.137Z,92320.00
2023-11-02T09:01:51.913Z,92338.09
2023-11-02T09:04:18.709Z,92341.88
2023-11-02T09:06:48.748Z,92353.59
2023-11-02T09:09:15.661Z,92342.47
2023-11-02T09:11:42.471Z,92342.22
2023-11-02T09:14:09.656Z,92345.69
2023-11-02T09:16:37.747Z,92341.19
2023-11-02T09:19:05.170Z,92342.03
2023-11-02T09:21:32.093Z,92349.75
2023-11-02T09:23:59.000Z,92349.34
2023-11-02T09:26:26.772Z,92351.91
2023-11-02T09:28:53.675Z,92355.00
2023-11-02T09:31:20.487Z,92360.34
2023-11-02T09:33:48.614Z,92374.31
2023-11-02T09:36:15.534Z,92386.41
2023-11-02T09:38:42.409Z,92386.56
2023-11-02T09:41:09.181Z,92385.56
2023-11-02T09:43:35.957Z,92389.13
2023-11-02T09:46:11.810Z,92389.41
2023-11-02T09:48:38.778Z,92395.03
2023-11-02T09:51:07.120Z,92392.81
2023-11-02T09:53:33.965Z,92388.19
2023-11-02T09:56:00.761Z,92376.75
2023-11-02T09:58:30.000Z,92367.56
2023-11-02T10:00:56.883Z,92367.16
2023-11-02T10:03:32.048Z,92348.66
2023-11-02T10:05:59.037Z,92338.84
2023-11-02T10:08:27.660Z,92350.81
2023-11-02T10:11:10.943Z,92355.91
2023-11-02T10:13:37.754Z,92353.34
2023-11-02T10:16:06.110Z,92348.03
2023-11-02T10:18:33.997Z,92340.88
2023-11-02T10:21:07.023Z,92326.38
2023-11-02T10:23:54.061Z,92327.63
2023-11-02T10:26:21.266Z,92322.19
2023-11-02T10:28:48.643Z,92332.22
2023-11-02T10:31:23.038Z,92327.72
2023-11-02T10:33:57.258Z,92312.75
2023-11-02T10:36:24.176Z,92305.06
2023-11-02T10:38:52.924Z,92298.81
2023-11-02T10:41:23.682Z,92281.91
2023-11-02T10:43:51.061Z,92277.22
2023-11-02T10:46:19.402Z,92279.97
2023-11-02T10:48:46.320Z,92269.44
2023-11-02T10:51:18.153Z,92264.31
2023-11-02T10:53:47.752Z,92263.03
2023-11-02T10:56:20.201Z,92245.75
2023-11-02T10:58:47.464Z,92232.72
2023-11-02T11:01:14.265Z,92235.72
2023-11-02T11:03:41.111Z,92225.81
2023-11-02T11:06:09.032Z,92233.03
2023-11-02T11:08:35.952Z,92216.66
2023-11-02T11:11:40.446Z,92195.72
2023-11-02T11:14:07.500Z,92186.09
2023-11-02T11:16:35.069Z,92174.25
2023-11-02T11:22:56.606Z,92177.94
2023-11-02T11:25:23.433Z,92160.78
2023-11-02T11:27:50.486Z,92167.13
2023-11-02T11:30:34.659Z,92168.44
2023-11-02T11:33:01.959Z,92154.25
2023-11-02T11:35:29.007Z,92148.13
2023-11-02T11:37:56.049Z,92154.50
2023-11-02T11:40:25.850Z,92175.22
2023-11-02T11:42:57.380Z,92166.88
2023-11-02T11:45:34.189Z,92162.69
2023-11-02T11:48:33.050Z,92152.31
2023-11-02T11:51:00.226Z,92162.09
2023-11-02T11:53:27.387Z,92164.38
2023-11-02T11:55:55.664Z,92148.88
2023-11-02T11:58:45.107Z,92101.41
2023-11-02T12:01:16.280Z,92111.53
2023-11-02T12:03:45.625Z,92121.75
2023-11-02T12:06:13.089Z,92143.22
2023-11-02T12:08:50.498Z,92148.53
2023-11-02T12:11:24.239Z,92150.84
2023-11-02T12:13:52.364Z,92142.72
2023-11-02T12:16:28.230Z,92119.38
2023-11-02T12:22:23.252Z,92082.09
2023-11-02T12:25:03.420Z,92066.00
2023-11-02T12:27:30.830Z,92062.97
2023-11-02T12:29:58.033Z,92043.31
2023-11-02T12:32:26.306Z,92048.31
2023-11-02T12:35:32.113Z,92069.31
2023-11-02T12:38:03.293Z,92063.81
2023-11-02T12:40:52.319Z,92052.03
2023-11-02T12:43:31.093Z,92046.91
2023-11-02T12:46:10.724Z,92066.84
2023-11-02T12:48:39.037Z,92069.81
2023-11-02T12:51:22.545Z,92079.63
2023-11-02T12:53:53.037Z,92074.94
2023-11-02T12:56:24.482Z,92043.56
2023-11-02T12:59:00.944Z,92062.72
2023-11-02T13:01:52.044Z,92061.31
2023-11-02T13:04:18.987Z,92064.19
2023-11-02T13:06:46.216Z,92053.56
2023-11-02T13:09:14.666Z,92054.97
2023-11-02T13:11:42.198Z,92041.22
2023-11-02T13:14:09.707Z,92053.03
2023-11-02T13:57:58.652Z,91990.84
2023-11-02T14:00:26.045Z,91981.31
2023-11-02T14:02:53.466Z,91973.28
2023-11-02T14:05:20.459Z,91964.22
2023-11-02T14:07:48.659Z,91951.06
2023-11-02T14:10:16.652Z,91941.63
2023-11-02T14:12:43.725Z,91940.81
2023-11-02T14:15:11.945Z,91949.00
2023-11-02T14:17:38.859Z,91941.00
2023-11-02T14:21:01.987Z,91922.97
2023-11-02T14:23:29.239Z,91911.09
2023-11-02T14:25:56.169Z,91897.25
2023-11-02T14:28:23.424Z,91886.25
2023-11-02T14:30:51.116Z,91863.00
2023-11-02T14:33:18.123Z,91864.25
2023-11-02T14:35:45.271Z,91868.81
2023-11-02T14:38:12.383Z,91873.47
2023-11-02T14:40:39.414Z,91876.66
2023-11-02T14:43:06.303Z,91879.56
2023-11-02T14:45:36.586Z,91892.97
2023-11-02T14:48:03.539Z,91896.13
2023-11-02T14:50:30.313Z,91895.25
2023-11-02T14:52:57.127Z,91899.22
2023-11-02T14:55:24.406Z,91885.97
2023-11-02T14:57:51.850Z,91882.88
2023-11-02T15:00:20.288Z,91879.25
2023-11-02T15:02:47.752Z,91876.72
2023-11-02T15:05:15.559Z,91878.34
2023-11-02T15:07:42.465Z,91870.16
2023-11-02T15:10:09.456Z,91864.56
2023-11-02T15:12:36.712Z,91858.22
2023-11-02T15:15:08.483Z,91860.66
2023-11-02T15:17:39.109Z,91856.78
2023-11-02T15:20:06.291Z,91842.97
2023-11-02T15:22:33.659Z,91838.69
2023-11-02T15:25:01.509Z,91842.94
2023-11-02T15:27:30.397Z,91824.97
2023-11-02T15:29:57.823Z,91833.75
2023-11-02T15:32:24.809Z,91823.03
2023-11-02T15:34:51.763Z,91807.66
2023-11-02T15:37:18.617Z,91794.75
2023-11-02T15:39:45.540Z,91798.06
2023-11-02T15:42:12.401Z,91805.53
2023-11-02T15:44:39.251Z,91814.88
2023-11-02T15:47:06.377Z,91823.25
2023-11-02T15:49:33.299Z,91821.66
2023-11-02T15:52:00.133Z,91813.84
2023-11-02T15:54:30.310Z,91821.50
2023-11-02T15:57:02.045Z,91836.94
2023-11-02T15:59:30.030Z,91840.88
2023-11-02T16:02:10.283Z,91835.38
2023-11-02T16:04:40.653Z,91848.66
2023-11-02T16:07:07.569Z,91843.91
2023-11-02T16:09:34.749Z,91842.25
2023-11-02T16:12:01.567Z,91847.47
2023-11-02T16:14:28.339Z,91869.31
2023-11-02T16:16:57.371Z,91882.13
2023-11-02T16:19:24.794Z,91876.06
2023-11-02T16:22:01.137Z,91866.88
2023-11-02T16:24:29.260Z,91858.22
2023-11-02T16:26:56.273Z,91907.41
2023-11-02T16:29:23.300Z,91901.66
2023-11-02T16:31:51.510Z,91899.56
2023-11-02T16:34:27.809Z,91902.94
2023-11-02T16:37:02.418Z,91904.16
2023-11-02T16:39:29.258Z,91899.25
2023-11-02T16:41:56.049Z,91893.66
2023-11-02T16:44:22.930Z,91911.56
2023-11-02T16:46:50.130Z,91900.28
2023-11-02T16:49:20.691Z,91904.75
2023-11-02T16:51:48.582Z,91909.50
2023-11-02T16:54:15.411Z,91911.53
2023-11-02T16:56:43.109Z,91925.25
2023-11-02T16:59:11.161Z,91922.91
2023-11-02T17:01:38.349Z,91933.50
2023-11-02T17:04:05.601Z,91930.41
2023-11-02T17:06:32.864Z,91929.88
2023-11-02T17:09:00.815Z,91934.22
2023-11-02T17:11:28.002Z,91925.03
2023-11-02T17:13:54.899Z,91927.66
2023-11-02T17:16:21.893Z,91935.41
2023-11-02T17:18:49.139Z,91959.78
2023-11-02T17:21:15.931Z,91955.50
2023-11-02T17:23:42.829Z,91951.44
2023-11-02T17:26:09.574Z,91950.50
2023-11-02T17:28:40.625Z,91948.94
2023-11-02T17:31:07.999Z,91939.75
2023-11-02T17:33:34.843Z,91930.97
2023-11-02T17:36:01.652Z,91931.03
2023-11-02T17:38:28.439Z,91936.16
2023-11-02T17:40:55.171Z,91944.00
2023-11-02T17:43:21.938Z,91944.00
2023-11-02T17:45:48.826Z,91942.31
2023-11-02T17:48:15.938Z,91937.50
2023-11-02T17:50:42.890Z,91949.06
2023-11-02T17:53:09.751Z,91950.25
2023-11-02T17:55:36.548Z,91947.16
2023-11-02T17:58:03.420Z,91941.88
2023-11-02T18:00:30.387Z,91934.38
2023-11-02T18:03:00.113Z,91934.66
2023-11-02T18:05:27.256Z,91918.72
2023-11-02T18:07:54.748Z,91931.50
2023-11-02T18:10:21.485Z,91926.06
2023-11-02T18:12:51.134Z,91927.25
2023-11-02T18:15:18.151Z,91921.22
2023-11-02T18:17:46.181Z,91914.13
2023-11-02T18:20:13.669Z,91917.28
2023-11-02T18:22:40.497Z,91916.31
2023-11-02T18:25:07.542Z,91911.84
2023-11-02T18:27:34.333Z,91905.16
2023-11-02T18:30:01.801Z,91913.16
2023-11-02T18:32:28.952Z,91915.03
2023-11-02T18:34:56.331Z,91921.53
2023-11-02T18:37:23.123Z,91929.88
2023-11-02T18:39:50.086Z,91927.06
2023-11-02T18:42:16.906Z,91919.72
2023-11-02T18:44:43.635Z,91918.34
2023-11-02T18:47:10.830Z,91921.09
2023-11-02T18:49:38.207Z,91921.00
2023-11-02T18:52:05.716Z,91931.50
2023-11-02T18:54:32.456Z,91922.25
2023-11-02T19:00:52.429Z,91915.06
2023-11-02T19:03:19.278Z,91917.00
2023-11-02T19:05:46.090Z,91912.44
2023-11-02T19:08:14.436Z,91903.63
2023-11-02T19:10:41.300Z,91895.59
2023-11-02T19:13:08.710Z,91882.81
2023-11-02T19:15:36.834Z,91888.72
2023-11-02T19:18:05.196Z,91885.63
2023-11-02T19:20:32.544Z,91892.75
2023-11-02T19:23:00.779Z,91893.75
2023-11-02T19:25:27.754Z,91891.91
2023-11-02T19:27:54.511Z,91891.63
2023-11-02T19:34:14.452Z,91870.22
2023-11-02T19:36:46.069Z,91859.78
2023-11-02T19:39:12.909Z,91864.94
2023-11-02T19:41:39.994Z,91857.19
2023-11-02T19:44:07.313Z,91857.09
2023-11-02T19:46:34.675Z,91859.31
2023-11-02T19:49:03.118Z,91856.34
2023-11-02T19:51:31.335Z,91859.47
2023-11-02T19:53:59.163Z,91855.59
2023-11-02T19:56:25.930Z,91835.56
2023-11-02T19:58:52.950Z,91824.03
2023-11-02T20:01:20.920Z,91813.72
2023-11-02T20:03:48.131Z,91812.66
2023-11-02T20:06:16.447Z,91807.09
2023-11-02T20:08:43.231Z,91800.25
2023-11-02T20:11:10.029Z,91814.13
2023-11-02T20:13:37.330Z,91804.75
2023-11-02T20:16:04.509Z,91803.25
2023-11-02T20:18:34.019Z,91805.22
2023-11-02T20:21:01.748Z,91799.16
2023-11-02T20:23:29.887Z,91795.75
2023-11-02T20:25:57.011Z,91796.59
2023-11-02T20:28:23.899Z,91788.88
2023-11-02T20:30:50.798Z,91788.44
2023-11-02T20:33:17.618Z,91795.84
2023-11-02T20:35:45.167Z,91798.56
2023-11-02T20:38:11.980Z,91789.84
2023-11-02T20:40:38.731Z,91792.16
2023-11-02T20:43:05.540Z,91778.53
2023-11-02T20:45:32.270Z,91781.75
2023-11-02T20:48:13.275Z,91793.00
2023-11-02T20:50:40.044Z,91793.50
2023-11-02T20:53:06.869Z,91803.88
2023-11-02T20:55:33.606Z,91801.22
2023-11-02T20:58:01.182Z,91810.72
2023-11-02T21:00:30.462Z,91806.72
2023-11-02T21:02:59.748Z,91811.47
2023-11-02T21:05:27.187Z,91816.31
2023-11-02T21:07:55.468Z,91803.19
2023-11-02T21:10:22.271Z,91809.34
2023-11-02T21:12:49.028Z,91805.97
2023-11-02T21:15:16.346Z,91812.38
2023-11-02T21:17:43.390Z,91811.13
2023-11-02T21:20:10.655Z,91816.19
2023-11-02T21:22:37.452Z,91823.00
2023-11-02T21:25:05.183Z,91825.19
2023-11-02T21:27:31.972Z,91822.84
2023-11-02T21:29:59.451Z,91825.25
2023-11-02T21:32:26.540Z,91828.22
2023-11-02T21:34:53.258Z,91826.75
2023-11-02T21:37:21.071Z,91827.81
2023-11-02T21:39:48.318Z,91822.69
2023-11-02T21:42:16.273Z,91817.88
2023-11-02T21:44:43.220Z,91820.09
2023-11-02T21:47:10.128Z,91821.81
2023-11-02T21:49:36.897Z,91826.38
2023-11-02T21:52:04.036Z,91827.94
2023-11-02T21:54:30.841Z,91815.00
2023-11-02T21:56:57.701Z,91823.50
2023-11-02T21:59:24.424Z,91821.97
2023-11-02T22:01:52.569Z,91829.50
2023-11-02T22:04:19.389Z,91830.06
2023-11-02T22:06:46.523Z,91831.66
2023-11-02T22:09:13.354Z,91829.41
2023-11-02T22:11:40.395Z,91839.34
2023-11-02T22:14:09.318Z,91826.97
2023-11-02T22:16:36.160Z,91833.25
2023-11-02T22:19:03.694Z,91837.25
2023-11-02T22:21:30.725Z,91831.00
2023-11-02T22:23:57.579Z,91831.91
2023-11-02T22:26:24.556Z,91826.38
2023-11-02T22:28:54.416Z,91834.75
2023-11-02T22:31:25.249Z,91834.16
2023-11-02T22:33:52.266Z,91828.81
2023-11-02T22:36:19.070Z,91820.50
2023-11-02T22:38:45.819Z,91827.38
2023-11-02T22:41:12.646Z,91824.97
2023-11-02T22:43:39.619Z,91825.66
2023-11-02T22:46:07.219Z,91818.16
2023-11-02T22:48:38.505Z,91821.28
2023-11-02T22:51:05.594Z,91814.69
2023-11-02T22:53:32.821Z,91828.72
2023-11-02T22:55:59.618Z,91826.97
2023-11-02T22:58:26.447Z,91826.78
2023-11-02T23:00:53.291Z,91835.94
2023-11-02T23:03:20.423Z,91839.84
2023-11-02T23:05:47.330Z,91840.78
2023-11-02T23:08:15.153Z,91842.56
2023-11-02T23:10:42.004Z,91848.44
2023-11-02T23:13:10.186Z,91845.84
2023-11-02T23:15:40.389Z,91843.47
2023-11-02T23:18:14.781Z,91844.94
2023-11-02T23:20:53.888Z,91860.78
2023-11-02T23:23:22.916Z,91854.25
2023-11-02T23:25:49.961Z,91865.19
2023-11-02T23:28:17.167Z,91872.38
2023-11-02T23:30:52.665Z,91872.72
2023-11-02T23:33:19.593Z,91867.28
2023-11-02T23:35:46.686Z,91869.53
2023-11-02T23:38:13.724Z,91864.97
2023-11-02T23:40:40.582Z,91857.91
2023-11-02T23:43:07.570Z,91862.06
2023-11-02T23:45:34.514Z,91854.25
2023-11-02T23:48:02.886Z,91864.69
2023-11-02T23:50:30.080Z,91862.84
2023-11-02T23:52:57.043Z,91866.91
2023-11-02T23:55:24.204Z,91869.06
2023-11-02T23:57:51.994Z,91865.94
